sensor_id;sensor_type;location;lat;lon;timestamp;P1;durP1;ratioP1;P2;durP2;ratioP2
1955;SDS011;978;48.314;11.562;2023-06-22T00:00:36;11.83;;;1.80;;
1955;SDS011;978;48.314;11.562;2023-06-22T00:03:07;11.90;;;1.77;;
1955;SDS011;978;48.314;11.562;2023-06-22T00:05:36;12.23;;;1.70;;
1955;SDS011;978;48.314;11.562;2023-06-22T00:08:04;11.67;;;1.77;;
1955;SDS011;978;48.314;11.562;2023-06-22T00:10:32;12.20;;;1.80;;
1955;SDS011;978;48.314;11.562;2023-06-22T00:13:00;12.83;;;2.27;;
1955;SDS011;978;48.314;11.562;2023-06-22T00:15:28;12.20;;;2.00;;
1955;SDS011;978;48.314;11.562;2023-06-22T00:17:56;12.00;;;1.83;;
1955;SDS011;978;48.314;11.562;2023-06-22T00:20:26;12.03;;;1.90;;
1955;SDS011;978;48.314;11.562;2023-06-22T00:22:55;12.30;;;2.27;;
1955;SDS011;978;48.314;11.562;2023-06-22T00:25:23;12.10;;;1.80;;
1955;SDS011;978;48.314;11.562;2023-06-22T00:27:52;12.00;;;1.70;;
1955;SDS011;978;48.314;11.562;2023-06-22T00:30:20;11.70;;;1.60;;
1955;SDS011;978;48.314;11.562;2023-06-22T00:32:50;11.83;;;1.90;;
1955;SDS011;978;48.314;11.562;2023-06-22T00:35:18;12.07;;;1.87;;
1955;SDS011;978;48.314;11.562;2023-06-22T00:37:47;12.00;;;1.60;;
1955;SDS011;978;48.314;11.562;2023-06-22T00:40:24;12.00;;;1.80;;
1955;SDS011;978;48.314;11.562;2023-06-22T00:42:53;11.87;;;1.77;;
1955;SDS011;978;48.314;11.562;2023-06-22T00:45:21;12.13;;;2.00;;
1955;SDS011;978;48.314;11.562;2023-06-22T00:47:50;11.80;;;1.80;;
1955;SDS011;978;48.314;11.562;2023-06-22T00:50:20;11.87;;;1.63;;
1955;SDS011;978;48.314;11.562;2023-06-22T00:52:55;12.70;;;2.97;;
1955;SDS011;978;48.314;11.562;2023-06-22T00:55:25;13.00;;;2.20;;
1955;SDS011;978;48.314;11.562;2023-06-22T00:57:53;12.17;;;2.13;;
1955;SDS011;978;48.314;11.562;2023-06-22T01:00:22;11.87;;;2.07;;
1955;SDS011;978;48.314;11.562;2023-06-22T01:02:52;13.17;;;2.80;;
1955;SDS011;978;48.314;11.562;2023-06-22T01:05:20;12.20;;;2.40;;
1955;SDS011;978;48.314;11.562;2023-06-22T01:07:53;12.37;;;1.87;;
1955;SDS011;978;48.314;11.562;2023-06-22T01:10:34;12.80;;;2.10;;
1955;SDS011;978;48.314;11.562;2023-06-22T01:13:07;12.40;;;2.20;;
1955;SDS011;978;48.314;11.562;2023-06-22T01:15:53;12.83;;;2.50;;
1955;SDS011;978;48.314;11.562;2023-06-22T01:18:28;12.70;;;2.47;;
1955;SDS011;978;48.314;11.562;2023-06-22T01:20:59;12.90;;;2.83;;
1955;SDS011;978;48.314;11.562;2023-06-22T01:23:41;12.00;;;1.60;;
1955;SDS011;978;48.314;11.562;2023-06-22T01:26:19;12.00;;;2.27;;
1955;SDS011;978;48.314;11.562;2023-06-22T01:28:56;12.40;;;2.03;;
1955;SDS011;978;48.314;11.562;2023-06-22T01:31:27;12.00;;;2.03;;
1955;SDS011;978;48.314;11.562;2023-06-22T01:33:57;12.30;;;2.33;;
1955;SDS011;978;48.314;11.562;2023-06-22T01:36:28;12.73;;;2.53;;
1955;SDS011;978;48.314;11.562;2023-06-22T01:38:57;12.53;;;2.10;;
1955;SDS011;978;48.314;11.562;2023-06-22T01:41:28;12.33;;;1.93;;
1955;SDS011;978;48.314;11.562;2023-06-22T01:44:00;12.43;;;2.10;;
1955;SDS011;978;48.314;11.562;2023-06-22T01:46:32;12.50;;;1.70;;
1955;SDS011;978;48.314;11.562;2023-06-22T01:49:00;11.67;;;2.40;;
1955;SDS011;978;48.314;11.562;2023-06-22T01:51:30;12.60;;;2.10;;
1955;SDS011;978;48.314;11.562;2023-06-22T01:53:58;12.13;;;2.00;;
1955;SDS011;978;48.314;11.562;2023-06-22T01:56:26;12.00;;;1.60;;
1955;SDS011;978;48.314;11.562;2023-06-22T01:58:56;12.50;;;2.00;;
1955;SDS011;978;48.314;11.562;2023-06-22T02:01:40;12.40;;;2.17;;
1955;SDS011;978;48.314;11.562;2023-06-22T02:04:11;13.07;;;3.20;;
1955;SDS011;978;48.314;11.562;2023-06-22T02:06:46;12.13;;;1.70;;
1955;SDS011;978;48.314;11.562;2023-06-22T02:09:17;12.07;;;1.57;;
1955;SDS011;978;48.314;11.562;2023-06-22T02:11:47;11.60;;;1.70;;
1955;SDS011;978;48.314;11.562;2023-06-22T02:14:21;12.13;;;1.90;;
1955;SDS011;978;48.314;11.562;2023-06-22T02:16:56;12.50;;;2.23;;
1955;SDS011;978;48.314;11.562;2023-06-22T02:19:26;11.53;;;1.63;;
1955;SDS011;978;48.314;11.562;2023-06-22T02:21:59;11.80;;;1.80;;
1955;SDS011;978;48.314;11.562;2023-06-22T02:24:26;11.80;;;1.70;;
1955;SDS011;978;48.314;11.562;2023-06-22T02:26:57;11.97;;;1.80;;
1955;SDS011;978;48.314;11.562;2023-06-22T02:29:25;11.67;;;1.80;;
1955;SDS011;978;48.314;11.562;2023-06-22T02:31:57;11.80;;;1.80;;
1955;SDS011;978;48.314;11.562;2023-06-22T02:34:25;12.20;;;2.37;;
1955;SDS011;978;48.314;11.562;2023-06-22T02:36:53;12.73;;;1.90;;
1955;SDS011;978;48.314;11.562;2023-06-22T02:39:22;11.77;;;2.20;;
1955;SDS011;978;48.314;11.562;2023-06-22T02:41:50;11.67;;;1.67;;
1955;SDS011;978;48.314;11.562;2023-06-22T02:44:17;12.60;;;2.00;;
1955;SDS011;978;48.314;11.562;2023-06-22T02:46:46;13.10;;;2.60;;
1955;SDS011;978;48.314;11.562;2023-06-22T02:49:16;12.13;;;1.80;;
1955;SDS011;978;48.314;11.562;2023-06-22T02:51:45;11.90;;;1.60;;
1955;SDS011;978;48.314;11.562;2023-06-22T02:54:13;11.97;;;1.80;;
1955;SDS011;978;48.314;11.562;2023-06-22T02:56:42;11.73;;;2.10;;
1955;SDS011;978;48.314;11.562;2023-06-22T02:59:14;11.90;;;1.70;;
1955;SDS011;978;48.314;11.562;2023-06-22T03:01:42;12.80;;;2.47;;
1955;SDS011;978;48.314;11.562;2023-06-22T03:04:10;13.10;;;2.10;;
1955;SDS011;978;48.314;11.562;2023-06-22T03:06:40;12.20;;;2.10;;
1955;SDS011;978;48.314;11.562;2023-06-22T03:09:07;12.43;;;2.17;;
1955;SDS011;978;48.314;11.562;2023-06-22T03:11:35;12.07;;;1.80;;
1955;SDS011;978;48.314;11.562;2023-06-22T03:14:04;11.60;;;1.70;;
1955;SDS011;978;48.314;11.562;2023-06-22T03:16:33;12.10;;;1.90;;
1955;SDS011;978;48.314;11.562;2023-06-22T03:19:01;12.67;;;1.80;;
1955;SDS011;978;48.314;11.562;2023-06-22T03:21:28;11.93;;;1.70;;
1955;SDS011;978;48.314;11.562;2023-06-22T03:24:03;11.50;;;1.67;;
1955;SDS011;978;48.314;11.562;2023-06-22T03:26:31;12.30;;;2.13;;
1955;SDS011;978;48.314;11.562;2023-06-22T03:28:59;13.60;;;2.67;;
1955;SDS011;978;48.314;11.562;2023-06-22T03:31:28;11.73;;;1.80;;
1955;SDS011;978;48.314;11.562;2023-06-22T03:33:56;12.10;;;2.00;;
1955;SDS011;978;48.314;11.562;2023-06-22T03:36:24;11.50;;;1.60;;
1955;SDS011;978;48.314;11.562;2023-06-22T03:38:52;11.57;;;1.50;;
1955;SDS011;978;48.314;11.562;2023-06-22T03:41:26;12.07;;;1.80;;
1955;SDS011;978;48.314;11.562;2023-06-22T03:43:54;12.10;;;1.90;;
1955;SDS011;978;48.314;11.562;2023-06-22T03:46:22;11.97;;;2.10;;
1955;SDS011;978;48.314;11.562;2023-06-22T03:48:50;11.53;;;1.70;;
1955;SDS011;978;48.314;11.562;2023-06-22T03:51:18;12.07;;;1.60;;
1955;SDS011;978;48.314;11.562;2023-06-22T03:53:47;11.67;;;1.60;;
1955;SDS011;978;48.314;11.562;2023-06-22T03:56:15;12.00;;;2.03;;
1955;SDS011;978;48.314;11.562;2023-06-22T03:58:49;11.47;;;1.60;;
1955;SDS011;978;48.314;11.562;2023-06-22T04:01:17;11.30;;;2.00;;
1955;SDS011;978;48.314;11.562;2023-06-22T04:03:46;12.00;;;1.60;;
1955;SDS011;978;48.314;11.562;2023-06-22T04:06:16;11.87;;;1.87;;
1955;SDS011;978;48.314;11.562;2023-06-22T04:08:44;12.27;;;1.73;;
1955;SDS011;978;48.314;11.562;2023-06-22T04:11:17;11.47;;;1.50;;
1955;SDS011;978;48.314;11.562;2023-06-22T04:13:59;11.77;;;1.43;;
1955;SDS011;978;48.314;11.562;2023-06-22T04:16:28;11.60;;;1.50;;
1955;SDS011;978;48.314;11.562;2023-06-22T04:18:57;12.50;;;1.87;;
1955;SDS011;978;48.314;11.562;2023-06-22T04:21:33;11.90;;;1.70;;
1955;SDS011;978;48.314;11.562;2023-06-22T04:24:14;11.80;;;1.83;;
1955;SDS011;978;48.314;11.562;2023-06-22T04:26:42;11.70;;;1.40;;
1955;SDS011;978;48.314;11.562;2023-06-22T04:29:25;11.50;;;1.60;;
1955;SDS011;978;48.314;11.562;2023-06-22T04:31:59;12.03;;;1.70;;
1955;SDS011;978;48.314;11.562;2023-06-22T04:34:31;12.53;;;2.23;;
1955;SDS011;978;48.314;11.562;2023-06-22T04:37:02;11.67;;;1.50;;
1955;SDS011;978;48.314;11.562;2023-06-22T04:39:31;11.53;;;1.77;;
1955;SDS011;978;48.314;11.562;2023-06-22T04:41:59;11.27;;;1.50;;
1955;SDS011;978;48.314;11.562;2023-06-22T04:44:32;12.00;;;1.97;;
1955;SDS011;978;48.314;11.562;2023-06-22T04:47:05;11.50;;;1.50;;
1955;SDS011;978;48.314;11.562;2023-06-22T04:49:37;11.90;;;2.00;;
1955;SDS011;978;48.314;11.562;2023-06-22T04:52:07;11.97;;;1.97;;
1955;SDS011;978;48.314;11.562;2023-06-22T04:54:37;11.50;;;1.87;;
1955;SDS011;978;48.314;11.562;2023-06-22T04:57:06;12.77;;;1.90;;
1955;SDS011;978;48.314;11.562;2023-06-22T04:59:45;11.97;;;1.90;;
1955;SDS011;978;48.314;11.562;2023-06-22T05:02:14;11.80;;;1.80;;
1955;SDS011;978;48.314;11.562;2023-06-22T05:04:55;12.00;;;1.70;;
1955;SDS011;978;48.314;11.562;2023-06-22T05:07:24;11.80;;;1.93;;
1955;SDS011;978;48.314;11.562;2023-06-22T05:09:51;11.80;;;2.03;;
1955;SDS011;978;48.314;11.562;2023-06-22T05:12:20;12.23;;;2.10;;
1955;SDS011;978;48.314;11.562;2023-06-22T05:14:51;12.37;;;1.93;;
1955;SDS011;978;48.314;11.562;2023-06-22T05:17:19;12.17;;;1.77;;
1955;SDS011;978;48.314;11.562;2023-06-22T05:19:46;12.07;;;2.00;;
1955;SDS011;978;48.314;11.562;2023-06-22T05:22:16;11.57;;;1.60;;
1955;SDS011;978;48.314;11.562;2023-06-22T05:24:46;11.73;;;2.00;;
1955;SDS011;978;48.314;11.562;2023-06-22T05:27:16;11.73;;;1.60;;
1955;SDS011;978;48.314;11.562;2023-06-22T05:29:45;11.83;;;2.27;;
1955;SDS011;978;48.314;11.562;2023-06-22T05:32:33;12.37;;;2.00;;
1955;SDS011;978;48.314;11.562;2023-06-22T05:35:01;12.10;;;1.80;;
1955;SDS011;978;48.314;11.562;2023-06-22T05:37:31;11.73;;;1.70;;
1955;SDS011;978;48.314;11.562;2023-06-22T05:40:00;13.00;;;2.30;;
1955;SDS011;978;48.314;11.562;2023-06-22T05:42:30;12.33;;;1.80;;
1955;SDS011;978;48.314;11.562;2023-06-22T05:44:59;13.27;;;2.40;;
1955;SDS011;978;48.314;11.562;2023-06-22T05:47:31;11.60;;;1.70;;
1955;SDS011;978;48.314;11.562;2023-06-22T05:49:59;12.27;;;2.40;;
1955;SDS011;978;48.314;11.562;2023-06-22T05:52:41;12.13;;;2.17;;
1955;SDS011;978;48.314;11.562;2023-06-22T05:55:11;12.20;;;2.20;;
1955;SDS011;978;48.314;11.562;2023-06-22T05:57:45;12.17;;;2.70;;
1955;SDS011;978;48.314;11.562;2023-06-22T06:00:15;12.17;;;2.00;;
1955;SDS011;978;48.314;11.562;2023-06-22T06:02:49;11.70;;;2.20;;
1955;SDS011;978;48.314;11.562;2023-06-22T06:05:18;12.37;;;2.33;;
1955;SDS011;978;48.314;11.562;2023-06-22T06:07:52;12.30;;;2.13;;
1955;SDS011;978;48.314;11.562;2023-06-22T06:10:23;13.00;;;2.23;;
1955;SDS011;978;48.314;11.562;2023-06-22T06:12:51;13.20;;;2.63;;
1955;SDS011;978;48.314;11.562;2023-06-22T06:15:28;12.40;;;2.60;;
1955;SDS011;978;48.314;11.562;2023-06-22T06:18:12;12.67;;;2.20;;
1955;SDS011;978;48.314;11.562;2023-06-22T06:20:39;12.07;;;2.30;;
1955;SDS011;978;48.314;11.562;2023-06-22T06:23:05;12.50;;;2.63;;
1955;SDS011;978;48.314;11.562;2023-06-22T06:25:32;12.50;;;2.73;;
1955;SDS011;978;48.314;11.562;2023-06-22T06:27:59;12.17;;;2.20;;
1955;SDS011;978;48.314;11.562;2023-06-22T06:30:27;12.23;;;2.23;;
1955;SDS011;978;48.314;11.562;2023-06-22T06:32:57;12.90;;;3.03;;
1955;SDS011;978;48.314;11.562;2023-06-22T06:35:25;12.10;;;2.50;;
1955;SDS011;978;48.314;11.562;2023-06-22T06:37:54;12.53;;;2.03;;
1955;SDS011;978;48.314;11.562;2023-06-22T06:40:24;12.63;;;2.13;;
1955;SDS011;978;48.314;11.562;2023-06-22T06:42:51;12.73;;;2.30;;
1955;SDS011;978;48.314;11.562;2023-06-22T06:45:18;13.20;;;2.50;;
1955;SDS011;978;48.314;11.562;2023-06-22T06:47:48;12.80;;;2.43;;
1955;SDS011;978;48.314;11.562;2023-06-22T06:50:20;12.40;;;2.00;;
1955;SDS011;978;48.314;11.562;2023-06-22T06:52:47;12.53;;;2.50;;
1955;SDS011;978;48.314;11.562;2023-06-22T06:55:17;12.60;;;2.43;;
1955;SDS011;978;48.314;11.562;2023-06-22T06:57:53;12.50;;;2.00;;
1955;SDS011;978;48.314;11.562;2023-06-22T07:00:24;12.57;;;2.30;;
1955;SDS011;978;48.314;11.562;2023-06-22T07:02:54;12.10;;;2.10;;
1955;SDS011;978;48.314;11.562;2023-06-22T07:05:35;12.10;;;2.00;;
1955;SDS011;978;48.314;11.562;2023-06-22T07:08:04;12.60;;;2.17;;
1955;SDS011;978;48.314;11.562;2023-06-22T07:10:31;12.20;;;1.70;;
1955;SDS011;978;48.314;11.562;2023-06-22T07:12:58;12.17;;;2.30;;
1955;SDS011;978;48.314;11.562;2023-06-22T07:15:26;12.40;;;2.20;;
1955;SDS011;978;48.314;11.562;2023-06-22T07:17:56;12.20;;;2.20;;
1955;SDS011;978;48.314;11.562;2023-06-22T07:20:27;14.23;;;2.80;;
1955;SDS011;978;48.314;11.562;2023-06-22T07:23:02;12.67;;;2.40;;
1955;SDS011;978;48.314;11.562;2023-06-22T07:25:31;14.00;;;3.30;;
1955;SDS011;978;48.314;11.562;2023-06-22T07:27:59;13.80;;;2.97;;
1955;SDS011;978;48.314;11.562;2023-06-22T07:30:28;13.70;;;3.50;;
1955;SDS011;978;48.314;11.562;2023-06-22T07:32:59;13.50;;;3.10;;
1955;SDS011;978;48.314;11.562;2023-06-22T07:35:51;12.97;;;3.03;;
1955;SDS011;978;48.314;11.562;2023-06-22T07:38:18;13.50;;;3.10;;
1955;SDS011;978;48.314;11.562;2023-06-22T07:40:46;13.90;;;3.83;;
1955;SDS011;978;48.314;11.562;2023-06-22T07:43:14;14.17;;;3.10;;
1955;SDS011;978;48.314;11.562;2023-06-22T07:45:48;13.83;;;3.97;;
1955;SDS011;978;48.314;11.562;2023-06-22T07:48:17;14.80;;;4.73;;
1955;SDS011;978;48.314;11.562;2023-06-22T07:50:59;14.50;;;4.37;;
1955;SDS011;978;48.314;11.562;2023-06-22T07:53:26;14.30;;;4.40;;
1955;SDS011;978;48.314;11.562;2023-06-22T07:55:55;13.50;;;3.90;;
1955;SDS011;978;48.314;11.562;2023-06-22T07:58:32;14.00;;;3.70;;
1955;SDS011;978;48.314;11.562;2023-06-22T08:01:09;14.00;;;3.50;;
1955;SDS011;978;48.314;11.562;2023-06-22T08:03:38;14.10;;;5.00;;
1955;SDS011;978;48.314;11.562;2023-06-22T08:06:06;13.57;;;3.80;;
1955;SDS011;978;48.314;11.562;2023-06-22T08:08:43;18.97;;;3.80;;
1955;SDS011;978;48.314;11.562;2023-06-22T08:11:25;13.63;;;3.50;;
1955;SDS011;978;48.314;11.562;2023-06-22T08:13:55;15.27;;;5.20;;
1955;SDS011;978;48.314;11.562;2023-06-22T08:16:31;14.40;;;4.47;;
1955;SDS011;978;48.314;11.562;2023-06-22T08:19:00;14.90;;;4.83;;
1955;SDS011;978;48.314;11.562;2023-06-22T08:21:40;14.00;;;4.27;;
1955;SDS011;978;48.314;11.562;2023-06-22T08:24:09;14.13;;;5.40;;
1955;SDS011;978;48.314;11.562;2023-06-22T08:26:40;14.10;;;4.20;;
1955;SDS011;978;48.314;11.562;2023-06-22T08:29:10;13.73;;;4.47;;
1955;SDS011;978;48.314;11.562;2023-06-22T08:31:37;13.87;;;4.50;;
1955;SDS011;978;48.314;11.562;2023-06-22T08:34:06;15.20;;;4.30;;
1955;SDS011;978;48.314;11.562;2023-06-22T08:36:43;14.80;;;5.17;;
1955;SDS011;978;48.314;11.562;2023-06-22T08:39:18;15.23;;;5.40;;
1955;SDS011;978;48.314;11.562;2023-06-22T08:41:46;14.47;;;5.00;;
1955;SDS011;978;48.314;11.562;2023-06-22T08:44:17;13.67;;;4.40;;
1955;SDS011;978;48.314;11.562;2023-06-22T08:46:48;15.30;;;5.23;;
1955;SDS011;978;48.314;11.562;2023-06-22T08:49:16;13.80;;;4.10;;
1955;SDS011;978;48.314;11.562;2023-06-22T08:51:46;15.07;;;4.30;;
1955;SDS011;978;48.314;11.562;2023-06-22T08:54:16;13.73;;;4.17;;
1955;SDS011;978;48.314;11.562;2023-06-22T08:56:49;14.70;;;4.47;;
1955;SDS011;978;48.314;11.562;2023-06-22T08:59:17;13.40;;;4.03;;
1955;SDS011;978;48.314;11.562;2023-06-22T09:01:48;13.63;;;4.10;;
1955;SDS011;978;48.314;11.562;2023-06-22T09:04:16;13.57;;;4.40;;
1955;SDS011;978;48.314;11.562;2023-06-22T09:06:58;16.03;;;4.17;;
1955;SDS011;978;48.314;11.562;2023-06-22T09:09:38;13.60;;;3.87;;
1955;SDS011;978;48.314;11.562;2023-06-22T09:12:15;13.80;;;4.20;;
1955;SDS011;978;48.314;11.562;2023-06-22T09:14:46;13.93;;;4.03;;
1955;SDS011;978;48.314;11.562;2023-06-22T09:17:27;13.80;;;4.43;;
1955;SDS011;978;48.314;11.562;2023-06-22T09:20:01;13.90;;;3.60;;
1955;SDS011;978;48.314;11.562;2023-06-22T09:22:43;13.70;;;3.73;;
1955;SDS011;978;48.314;11.562;2023-06-22T09:25:11;14.47;;;4.67;;
1955;SDS011;978;48.314;11.562;2023-06-22T09:27:40;14.07;;;4.20;;
1955;SDS011;978;48.314;11.562;2023-06-22T09:30:16;14.10;;;4.23;;
1955;SDS011;978;48.314;11.562;2023-06-22T09:32:43;13.50;;;4.20;;
1955;SDS011;978;48.314;11.562;2023-06-22T09:35:15;13.50;;;4.13;;
1955;SDS011;978;48.314;11.562;2023-06-22T09:37:58;12.97;;;3.40;;
1955;SDS011;978;48.314;11.562;2023-06-22T09:40:26;14.00;;;3.37;;
1955;SDS011;978;48.314;11.562;2023-06-22T09:42:59;15.90;;;3.97;;
1955;SDS011;978;48.314;11.562;2023-06-22T09:45:31;15.93;;;3.50;;
1955;SDS011;978;48.314;11.562;2023-06-22T09:47:59;13.00;;;2.70;;
1955;SDS011;978;48.314;11.562;2023-06-22T09:50:27;15.10;;;3.00;;
1955;SDS011;978;48.314;11.562;2023-06-22T09:52:58;13.07;;;2.40;;
1955;SDS011;978;48.314;11.562;2023-06-22T09:55:28;15.83;;;3.43;;
1955;SDS011;978;48.314;11.562;2023-06-22T09:57:56;12.20;;;2.47;;
1955;SDS011;978;48.314;11.562;2023-06-22T10:00:24;12.63;;;2.40;;
1955;SDS011;978;48.314;11.562;2023-06-22T10:02:51;13.57;;;2.47;;
1955;SDS011;978;48.314;11.562;2023-06-22T10:05:19;12.67;;;2.33;;
1955;SDS011;978;48.314;11.562;2023-06-22T10:07:48;12.70;;;3.20;;
1955;SDS011;978;48.314;11.562;2023-06-22T10:10:16;12.23;;;2.40;;
1955;SDS011;978;48.314;11.562;2023-06-22T10:12:48;13.07;;;2.33;;
1955;SDS011;978;48.314;11.562;2023-06-22T10:15:22;13.60;;;2.60;;
1955;SDS011;978;48.314;11.562;2023-06-22T10:17:53;14.33;;;5.50;;
1955;SDS011;978;48.314;11.562;2023-06-22T10:20:21;15.47;;;6.20;;
1955;SDS011;978;48.314;11.562;2023-06-22T10:22:54;17.20;;;6.87;;
1955;SDS011;978;48.314;11.562;2023-06-22T10:25:25;16.70;;;7.97;;
1955;SDS011;978;48.314;11.562;2023-06-22T10:27:57;15.90;;;7.77;;
1955;SDS011;978;48.314;11.562;2023-06-22T10:30:24;17.60;;;11.10;;
1955;SDS011;978;48.314;11.562;2023-06-22T10:32:55;19.20;;;11.27;;
1955;SDS011;978;48.314;11.562;2023-06-22T10:35:25;19.23;;;14.60;;
1955;SDS011;978;48.314;11.562;2023-06-22T10:37:56;21.10;;;12.30;;
1955;SDS011;978;48.314;11.562;2023-06-22T10:40:31;19.97;;;14.60;;
1955;SDS011;978;48.314;11.562;2023-06-22T10:43:01;19.03;;;12.00;;
1955;SDS011;978;48.314;11.562;2023-06-22T10:45:31;20.60;;;14.30;;
1955;SDS011;978;48.314;11.562;2023-06-22T10:48:06;20.30;;;15.23;;
1955;SDS011;978;48.314;11.562;2023-06-22T10:50:34;19.37;;;13.93;;
1955;SDS011;978;48.314;11.562;2023-06-22T10:53:04;18.97;;;12.43;;
1955;SDS011;978;48.314;11.562;2023-06-22T10:55:36;18.23;;;13.43;;
1955;SDS011;978;48.314;11.562;2023-06-22T10:58:05;18.70;;;12.50;;
1955;SDS011;978;48.314;11.562;2023-06-22T11:00:32;20.57;;;14.63;;
1955;SDS011;978;48.314;11.562;2023-06-22T11:03:01;18.23;;;12.93;;
1955;SDS011;978;48.314;11.562;2023-06-22T11:05:31;19.60;;;13.67;;
1955;SDS011;978;48.314;11.562;2023-06-22T11:08:06;17.27;;;6.90;;
1955;SDS011;978;48.314;11.562;2023-06-22T11:10:47;16.93;;;8.43;;
1955;SDS011;978;48.314;11.562;2023-06-22T11:13:26;16.80;;;7.77;;
1955;SDS011;978;48.314;11.562;2023-06-22T11:15:56;17.70;;;10.53;;
1955;SDS011;978;48.314;11.562;2023-06-22T11:18:23;17.87;;;10.67;;
1955;SDS011;978;48.314;11.562;2023-06-22T11:20:54;18.30;;;10.43;;
1955;SDS011;978;48.314;11.562;2023-06-22T11:23:24;17.10;;;7.50;;
1955;SDS011;978;48.314;11.562;2023-06-22T11:25:57;17.13;;;7.63;;
1955;SDS011;978;48.314;11.562;2023-06-22T11:28:25;16.20;;;7.20;;
1955;SDS011;978;48.314;11.562;2023-06-22T11:31:03;16.10;;;6.50;;
1955;SDS011;978;48.314;11.562;2023-06-22T11:33:31;15.43;;;6.93;;
1955;SDS011;978;48.314;11.562;2023-06-22T11:36:07;15.53;;;6.03;;
1955;SDS011;978;48.314;11.562;2023-06-22T11:38:49;15.23;;;5.97;;
1955;SDS011;978;48.314;11.562;2023-06-22T11:41:19;16.93;;;5.83;;
1955;SDS011;978;48.314;11.562;2023-06-22T11:43:47;15.40;;;5.00;;
1955;SDS011;978;48.314;11.562;2023-06-22T11:46:15;16.60;;;6.50;;
1955;SDS011;978;48.314;11.562;2023-06-22T11:48:43;16.17;;;7.03;;
1955;SDS011;978;48.314;11.562;2023-06-22T11:51:19;15.60;;;5.90;;
1955;SDS011;978;48.314;11.562;2023-06-22T11:53:46;15.83;;;6.50;;
1955;SDS011;978;48.314;11.562;2023-06-22T11:56:14;16.00;;;6.13;;
1955;SDS011;978;48.314;11.562;2023-06-22T11:58:45;16.67;;;6.93;;
1955;SDS011;978;48.314;11.562;2023-06-22T12:01:16;15.20;;;5.77;;
1955;SDS011;978;48.314;11.562;2023-06-22T12:03:45;15.40;;;5.37;;
1955;SDS011;978;48.314;11.562;2023-06-22T12:06:14;16.97;;;8.27;;
1955;SDS011;978;48.314;11.562;2023-06-22T12:08:45;16.97;;;7.13;;
1955;SDS011;978;48.314;11.562;2023-06-22T12:11:11;16.50;;;6.77;;
1955;SDS011;978;48.314;11.562;2023-06-22T12:13:39;15.90;;;6.10;;
1955;SDS011;978;48.314;11.562;2023-06-22T12:16:09;16.50;;;6.30;;
1955;SDS011;978;48.314;11.562;2023-06-22T12:18:39;16.43;;;6.90;;
1955;SDS011;978;48.314;11.562;2023-06-22T12:21:08;17.60;;;8.13;;
1955;SDS011;978;48.314;11.562;2023-06-22T12:23:39;16.80;;;6.40;;
1955;SDS011;978;48.314;11.562;2023-06-22T12:26:08;15.83;;;6.03;;
1955;SDS011;978;48.314;11.562;2023-06-22T12:28:39;16.60;;;7.00;;
1955;SDS011;978;48.314;11.562;2023-06-22T12:31:21;16.43;;;8.27;;
1955;SDS011;978;48.314;11.562;2023-06-22T12:33:51;16.67;;;6.43;;
1955;SDS011;978;48.314;11.562;2023-06-22T12:36:20;16.57;;;6.50;;
1955;SDS011;978;48.314;11.562;2023-06-22T12:38:55;17.50;;;8.10;;
1955;SDS011;978;48.314;11.562;2023-06-22T12:41:30;15.80;;;6.40;;
1955;SDS011;978;48.314;11.562;2023-06-22T12:44:07;16.57;;;6.63;;
1955;SDS011;978;48.314;11.562;2023-06-22T12:46:47;15.97;;;5.07;;
1955;SDS011;978;48.314;11.562;2023-06-22T12:49:16;17.97;;;5.80;;
1955;SDS011;978;48.314;11.562;2023-06-22T12:51:44;32.93;;;8.13;;
1955;SDS011;978;48.314;11.562;2023-06-22T12:54:15;15.93;;;6.47;;
1955;SDS011;978;48.314;11.562;2023-06-22T12:56:43;15.70;;;5.90;;
1955;SDS011;978;48.314;11.562;2023-06-22T12:59:19;16.73;;;6.43;;
1955;SDS011;978;48.314;11.562;2023-06-22T13:01:53;16.73;;;7.03;;
1955;SDS011;978;48.314;11.562;2023-06-22T13:04:22;16.03;;;6.67;;
1955;SDS011;978;48.314;11.562;2023-06-22T13:06:59;17.40;;;6.70;;
1955;SDS011;978;48.314;11.562;2023-06-22T13:09:29;15.70;;;5.90;;
1955;SDS011;978;48.314;11.562;2023-06-22T13:11:57;15.60;;;6.17;;
1955;SDS011;978;48.314;11.562;2023-06-22T13:14:39;17.63;;;6.47;;
1955;SDS011;978;48.314;11.562;2023-06-22T13:17:10;21.13;;;5.80;;
1955;SDS011;978;48.314;11.562;2023-06-22T13:19:51;15.07;;;5.43;;
1955;SDS011;978;48.314;11.562;2023-06-22T13:22:30;20.20;;;6.17;;
1955;SDS011;978;48.314;11.562;2023-06-22T13:24:59;16.20;;;6.27;;
1955;SDS011;978;48.314;11.562;2023-06-22T13:27:32;23.53;;;7.27;;
1955;SDS011;978;48.314;11.562;2023-06-22T13:30:08;15.63;;;5.70;;
1955;SDS011;978;48.314;11.562;2023-06-22T13:32:55;15.87;;;5.77;;
1955;SDS011;978;48.314;11.562;2023-06-22T13:35:26;16.60;;;7.13;;
1955;SDS011;978;48.314;11.562;2023-06-22T13:38:03;16.43;;;6.40;;
1955;SDS011;978;48.314;11.562;2023-06-22T13:40:34;16.57;;;5.60;;
1955;SDS011;978;48.314;11.562;2023-06-22T13:43:09;17.27;;;6.37;;
1955;SDS011;978;48.314;11.562;2023-06-22T13:45:37;19.17;;;6.50;;
1955;SDS011;978;48.314;11.562;2023-06-22T13:50:55;16.50;;;5.57;;
1955;SDS011;978;48.314;11.562;2023-06-22T13:53:25;16.00;;;6.70;;
1955;SDS011;978;48.314;11.562;2023-06-22T13:56:03;16.57;;;6.67;;
1955;SDS011;978;48.314;11.562;2023-06-22T13:58:36;16.23;;;6.30;;
1955;SDS011;978;48.314;11.562;2023-06-22T14:01:13;15.40;;;5.47;;
1955;SDS011;978;48.314;11.562;2023-06-22T14:04:02;16.40;;;6.40;;
1955;SDS011;978;48.314;11.562;2023-06-22T14:06:32;16.57;;;6.67;;
1955;SDS011;978;48.314;11.562;2023-06-22T14:08:59;15.03;;;6.47;;
1955;SDS011;978;48.314;11.562;2023-06-22T14:11:27;14.97;;;4.60;;
1955;SDS011;978;48.314;11.562;2023-06-22T14:13:59;15.60;;;6.43;;
1955;SDS011;978;48.314;11.562;2023-06-22T14:16:31;18.57;;;5.60;;
1955;SDS011;978;48.314;11.562;2023-06-22T14:19:03;17.30;;;6.23;;
1955;SDS011;978;48.314;11.562;2023-06-22T14:21:31;21.10;;;6.37;;
1955;SDS011;978;48.314;11.562;2023-06-22T14:24:10;16.30;;;6.30;;
1955;SDS011;978;48.314;11.562;2023-06-22T14:26:39;15.40;;;5.67;;
1955;SDS011;978;48.314;11.562;2023-06-22T14:29:09;16.30;;;5.97;;
1955;SDS011;978;48.314;11.562;2023-06-22T14:31:40;16.30;;;5.83;;
1955;SDS011;978;48.314;11.562;2023-06-22T14:34:20;15.87;;;6.23;;
1955;SDS011;978;48.314;11.562;2023-06-22T14:36:55;17.83;;;7.23;;
1955;SDS011;978;48.314;11.562;2023-06-22T14:39:35;18.77;;;6.50;;
1955;SDS011;978;48.314;11.562;2023-06-22T14:42:12;14.47;;;5.50;;
1955;SDS011;978;48.314;11.562;2023-06-22T14:44:49;17.10;;;5.77;;
1955;SDS011;978;48.314;11.562;2023-06-22T14:47:19;15.50;;;6.83;;
1955;SDS011;978;48.314;11.562;2023-06-22T14:49:57;15.80;;;6.20;;
1955;SDS011;978;48.314;11.562;2023-06-22T14:52:27;16.30;;;6.67;;
1955;SDS011;978;48.314;11.562;2023-06-22T14:55:05;15.93;;;5.10;;
1955;SDS011;978;48.314;11.562;2023-06-22T14:57:35;15.10;;;5.33;;
1955;SDS011;978;48.314;11.562;2023-06-22T15:00:12;15.73;;;5.90;;
1955;SDS011;978;48.314;11.562;2023-06-22T15:02:48;15.67;;;5.10;;
1955;SDS011;978;48.314;11.562;2023-06-22T15:05:20;17.20;;;6.90;;
1955;SDS011;978;48.314;11.562;2023-06-22T15:07:49;15.70;;;6.10;;
1955;SDS011;978;48.314;11.562;2023-06-22T15:10:17;15.57;;;6.03;;
1955;SDS011;978;48.314;11.562;2023-06-22T15:12:56;15.47;;;5.00;;
1955;SDS011;978;48.314;11.562;2023-06-22T15:15:25;15.30;;;5.00;;
1955;SDS011;978;48.314;11.562;2023-06-22T15:17:54;16.20;;;5.87;;
1955;SDS011;978;48.314;11.562;2023-06-22T15:20:24;14.93;;;5.60;;
1955;SDS011;978;48.314;11.562;2023-06-22T15:22:54;16.20;;;6.50;;
1955;SDS011;978;48.314;11.562;2023-06-22T15:25:27;16.53;;;6.40;;
1955;SDS011;978;48.314;11.562;2023-06-22T15:27:55;14.97;;;4.47;;